Time;durP1;ratioP1;P1;durP2;ratioP2;P2;SDS_P1;SDS_P2;PMS_P1;PMS_P2;Temp;Humidity;BMP_temperature;BMP_pressure;BME280_temperature;BME280_humidity;BME280_pressure;Samples;Min_cycle;Max_cycle;Signal;HPM_P1;HPM_P2
2022/02/11 00:08:18;;;;;;;11.10;7.30;;;;;;;6.04;71.63;100678.71;110714;1251;21924;-77
2022/02/11 00:11:15;;;;;;;9.70;7.40;;;;;;;6.03;71.52;100678.45;110653;1251;23043;-77
2022/02/11 00:14:32;;;;;;;8.80;7.10;;;;;;;6.02;71.56;100676.61;110665;1251;23031;-76
2022/02/11 00:17:17;;;;;;;11.20;6.20;;;;;;;5.99;71.57;100678.96;110548;1256;22016;-77
2022/02/11 00:20:25;;;;;;;9.60;6.20;;;;;;;5.97;71.64;100676.14;110171;1257;23719;-76
2022/02/11 00:23:23;;;;;;;8.00;6.10;;;;;;;5.94;71.64;100673.96;110545;1254;23669;-77
2022/02/11 00:26:38;;;;;;;7.70;6.90;;;;;;;5.93;71.75;100672.67;110234;1254;23611;-76
2022/02/11 00:35:27;;;;;;;10.50;7.60;;;;;;;5.86;71.87;100678.80;108788;1270;21988;-76
2022/02/11 00:38:09;;;;;;;12.70;8.50;;;;;;;5.85;71.98;100683.25;108804;1270;22095;-76
2022/02/11 01:02:45;;;;;;;7.20;5.30;;;;;;;5.85;72.33;100669.94;109656;1263;22042;-75
2022/02/11 01:05:24;;;;;;;7.80;5.30;;;;;;;5.84;72.33;100668.83;109197;1264;23046;-76
2022/02/11 01:08:31;;;;;;;8.40;5.60;;;;;;;5.86;72.36;100671.30;109330;1264;22039;-77
2022/02/11 01:11:50;;;;;;;8.10;5.60;;;;;;;5.89;72.49;100668.40;109392;1263;23630;-76
2022/02/11 01:14:36;;;;;;;7.30;6.00;;;;;;;5.87;72.42;100664.90;109778;1263;22064;-76
2022/02/11 01:26:45;;;;;;;10.80;7.50;;;;;;;5.85;72.48;100660.52;109955;1262;23603;-75
2022/02/11 01:43:53;;;;;;;15.30;8.10;;;;;;;5.83;72.31;100647.77;109542;1261;24013;-76
2022/02/11 01:56:54;;;;;;;7.30;5.20;;;;;;;5.76;72.56;100650.44;109192;1267;21994;-78
2022/02/11 02:00:05;;;;;;;6.50;4.90;;;;;;;5.80;72.53;100651.16;109239;1264;21973;-77
2022/02/11 02:17:12;;;;;;;6.20;5.30;;;;;;;5.71;72.54;100653.83;108267;1279;22866;-78
2022/02/11 04:55:42;;;;;;;12.70;11.00;;;;;;;5.46;74.72;100582.23;109864;1260;22997;-77
2022/02/11 05:01:05;;;;;;;15.60;13.30;;;;;;;5.51;74.60;100581.48;110148;1260;21944;-76
2022/02/11 05:03:42;;;;;;;15.30;13.10;;;;;;;5.53;74.59;100583.38;110231;1260;21978;-77
2022/02/11 05:06:34;;;;;;;16.60;11.70;;;;;;;5.56;74.55;100584.69;110258;1257;22057;-76
2022/02/11 05:09:44;;;;;;;13.00;10.40;;;;;;;5.56;74.45;100591.14;110222;1258;22093;-76
2022/02/11 05:12:49;;;;;;;13.10;9.60;;;;;;;5.55;74.45;100592.08;110405;1257;21972;-78
2022/02/11 05:15:48;;;;;;;14.80;12.10;;;;;;;5.54;74.41;100588.20;110333;1251;23693;-78
2022/02/11 05:18:38;;;;;;;14.60;13.00;;;;;;;5.54;74.43;100585.02;110939;1251;21965;-77
2022/02/11 05:21:24;;;;;;;15.90;14.20;;;;;;;5.55;74.45;100584.29;110743;1254;21964;-78
2022/02/11 05:24:35;;;;;;;19.90;17.90;;;;;;;5.55;74.44;100587.05;110613;1254;23042;-76
2022/02/11 05:28:09;;;;;;;21.20;19.10;;;;;;;5.53;74.38;100584.95;110744;1253;21966;-76
2022/02/11 05:31:16;;;;;;;19.70;17.60;;;;;;;5.49;74.33;100579.90;110704;1253;21982;-77
2022/02/11 05:34:03;;;;;;;16.60;14.90;;;;;;;5.47;74.41;100577.95;110476;1254;21966;-77
2022/02/11 05:37:06;;;;;;;16.10;12.00;;;;;;;5.46;74.33;100577.15;110656;1254;21962;-76
2022/02/11 05:39:59;;;;;;;14.20;12.10;;;;;;;5.46;74.38;100578.59;110678;1251;23568;-77
2022/02/11 05:42:46;;;;;;;19.00;14.20;;;;;;;5.44;74.27;100584.15;110651;1253;21966;-77
2022/02/11 05:45:37;;;;;;;20.80;14.00;;;;;;;5.44;74.28;100586.08;110575;1254;23055;-77
2022/02/11 05:48:33;;;;;;;17.60;12.10;;;;;;;5.43;74.22;100589.13;110031;1260;21995;-77
2022/02/11 05:51:13;;;;;;;16.80;12.70;;;;;;;5.41;74.17;100588.96;109978;1260;23698;-77
2022/02/11 05:53:49;;;;;;;13.70;11.30;;;;;;;5.39;74.07;100586.84;110104;1260;22760;-78
2022/02/11 05:56:32;;;;;;;12.00;9.50;;;;;;;5.39;74.12;100590.82;108957;1267;23685;-76
2022/02/11 05:59:05;;;;;;;11.90;9.40;;;;;;;5.40;74.02;100592.31;109147;1267;22056;-76
2022/02/11 06:01:34;;;;;;;11.60;8.50;;;;;;;5.41;73.98;100591.35;108852;1270;22659;-77
2022/02/11 06:04:07;;;;;;;10.10;8.90;;;;;;;5.43;74.09;100593.46;108666;1273;22438;-77
2022/02/11 06:06:45;;;;;;;17.50;11.50;;;;;;;5.45;74.05;100594.69;108572;1271;22022;-76
2022/02/11 06:09:15;;;;;;;17.30;13.50;;;;;;;5.47;74.01;100596.83;108745;1270;21986;-75
2022/02/11 06:11:58;;;;;;;20.20;17.60;;;;;;;5.47;73.86;100597.65;108827;1270;22842;-76
2022/02/11 06:14:33;;;;;;;17.20;15.30;;;;;;;5.46;73.82;100595.02;109020;1263;22536;-77
2022/02/11 06:17:23;;;;;;;20.00;17.80;;;;;;;5.44;73.83;100592.73;109290;1263;23039;-77
2022/02/11 06:20:01;;;;;;;26.70;23.90;;;;;;;5.45;73.79;100589.64;109244;1260;21971;-77
2022/02/11 06:22:37;;;;;;;32.70;26.30;;;;;;;5.48;73.79;100591.02;109735;1259;21972;-77
2022/02/11 06:25:35;;;;;;;26.40;23.80;;;;;;;5.49;73.87;100586.90;110586;1251;21962;-78
2022/02/11 06:28:05;;;;;;;28.60;25.60;;;;;;;5.51;73.86;100589.88;110055;1257;23575;-77
2022/02/11 06:30:37;;;;;;;34.80;31.00;;;;;;;5.52;73.78;100589.20;109855;1260;22868;-77
2022/02/11 06:33:07;;;;;;;36.20;32.40;;;;;;;5.54;73.79;100589.44;110408;1257;22896;-77
2022/02/11 06:35:44;;;;;;;34.30;30.60;;;;;;;5.55;73.79;100591.10;109387;1263;21977;-78
2022/02/11 06:38:24;;;;;;;33.80;30.20;;;;;;;5.57;73.81;100592.48;109566;1263;22603;-78
2022/02/11 06:40:58;;;;;;;32.50;27.70;;;;;;;5.59;73.84;100591.95;109117;1267;23608;-77
2022/02/11 06:43:29;;;;;;;27.00;23.80;;;;;;;5.59;73.63;100589.34;108968;1267;23176;-78
2022/02/11 06:46:01;;;;;;;20.40;18.30;;;;;;;5.60;73.73;100584.84;108885;1270;22048;-78
2022/02/11 06:48:33;;;;;;;20.10;17.70;;;;;;;5.62;73.80;100585.05;108920;1267;23754;-78
2022/02/11 06:51:06;;;;;;;20.30;18.30;;;;;;;5.61;73.72;100590.71;109000;1267;23050;-77
2022/02/11 06:53:37;;;;;;;19.30;17.30;;;;;;;5.62;73.72;100592.39;109522;1257;23159;-77
2022/02/11 06:56:09;;;;;;;16.10;14.50;;;;;;;5.64;73.84;100591.91;110082;1257;22362;-77
2022/02/11 06:58:39;;;;;;;18.30;16.30;;;;;;;5.64;73.63;100594.98;110565;1251;22069;-77
2022/02/11 07:01:09;;;;;;;22.40;15.30;;;;;;;5.63;73.59;100593.69;110958;1251;21965;-77
2022/02/11 07:03:43;;;;;;;17.30;13.80;;;;;;;5.62;73.53;100591.53;110771;1250;21968;-80
2022/02/11 07:06:18;;;;;;;21.50;14.90;;;;;;;5.61;73.54;100590.05;110593;1249;23679;-78
2022/02/11 07:08:51;;;;;;;16.10;11.50;;;;;;;5.59;73.54;100595.92;110887;1251;22766;-80
2022/02/11 07:11:27;;;;;;;15.70;11.60;;;;;;;5.57;73.44;100599.25;110764;1251;21977;-79
2022/02/11 07:14:14;;;;;;;13.90;10.40;;;;;;;5.58;73.61;100604.83;110805;1251;23459;-79
2022/02/11 07:16:52;;;;;;;11.50;10.30;;;;;;;5.56;73.48;100604.77;110601;1250;23068;-78
2022/02/11 07:19:30;;;;;;;13.40;10.50;;;;;;;5.56;73.49;100612.16;110741;1251;21969;-79
2022/02/11 07:22:17;;;;;;;17.50;14.60;;;;;;;5.57;73.35;100614.66;111004;1251;21989;-80
2022/02/11 07:24:56;;;;;;;19.50;14.70;;;;;;;5.52;73.25;100615.94;111090;1251;22931;-82
2022/02/11 07:27:46;;;;;;;12.00;10.40;;;;;;;5.48;73.30;100621.20;111110;1250;21969;-81
2022/02/11 07:30:44;;;;;;;19.30;16.40;;;;;;;5.40;73.24;100620.08;111083;1250;23005;-82
2022/02/11 07:33:45;;;;;;;14.90;12.50;;;;;;;5.37;73.31;100621.09;111019;1251;21965;-81
2022/02/11 07:36:25;;;;;;;11.80;10.60;;;;;;;5.35;73.27;100622.45;110921;1251;21963;-81
2022/02/11 07:39:09;;;;;;;11.40;9.50;;;;;;;5.32;73.21;100622.85;110682;1254;24543;-82
2022/02/11 07:42:01;;;;;;;12.60;9.90;;;;;;;5.30;73.37;100625.48;110749;1254;21958;-83
2022/02/11 07:44:39;;;;;;;12.30;9.00;;;;;;;5.27;73.19;100629.78;110699;1256;21972;-84
2022/02/11 07:47:21;;;;;;;10.60;8.70;;;;;;;5.21;73.03;100631.98;110566;1255;23047;-81
2022/02/11 07:50:29;;;;;;;9.70;8.60;;;;;;;5.12;72.90;100628.72;110497;1254;22042;-81
2022/02/11 07:54:13;;;;;;;15.20;13.40;;;;;;;5.03;73.05;100628.40;110702;1256;22002;-82
2022/02/11 07:57:46;;;;;;;12.10;9.00;;;;;;;4.94;73.47;100637.89;111169;1250;21981;-81
2022/02/11 08:00:31;;;;;;;10.10;7.90;;;;;;;4.91;73.53;100645.56;111005;1251;21971;-82
2022/02/11 08:03:03;;;;;;;12.50;8.40;;;;;;;4.85;73.30;100649.75;110873;1254;21978;-82
2022/02/11 08:05:39;;;;;;;9.60;7.20;;;;;;;4.77;73.23;100652.48;110659;1254;22888;-81
2022/02/11 08:08:12;;;;;;;10.60;7.20;;;;;;;4.67;73.26;100655.19;110460;1254;23578;-80
2022/02/11 08:10:47;;;;;;;7.60;6.70;;;;;;;4.59;73.26;100662.15;109957;1260;21981;-81
2022/02/11 08:13:18;;;;;;;8.30;6.70;;;;;;;4.50;73.22;100662.13;109743;1261;22058;-81
2022/02/11 08:15:48;;;;;;;9.20;5.80;;;;;;;4.41;73.30;100664.05;109670;1261;23771;-81
2022/02/11 08:18:25;;;;;;;5.90;5.30;;;;;;;4.30;73.19;100664.05;109146;1267;23048;-81
2022/02/11 08:21:21;;;;;;;9.90;5.60;;;;;;;4.22;73.49;100670.25;109681;1262;22109;-81
2022/02/11 08:24:13;;;;;;;6.80;5.10;;;;;;;4.20;73.82;100671.32;109585;1261;24372;-78
2022/02/11 08:26:48;;;;;;;8.30;4.40;;;;;;;4.16;73.78;100672.10;110344;1263;22755;-82
2022/02/11 08:29:22;;;;;;;7.10;4.40;;;;;;;4.12;73.77;100672.08;109797;1261;24345;-84
2022/02/11 08:31:59;;;;;;;6.10;4.20;;;;;;;4.09;73.67;100676.02;109444;1267;22171;-83
2022/02/11 08:34:33;;;;;;;7.40;4.20;;;;;;;4.04;73.60;100678.64;109552;1260;21979;-83
2022/02/11 08:37:04;;;;;;;4.70;3.60;;;;;;;4.01;73.78;100677.06;109644;1260;21997;-80
2022/02/11 08:39:38;;;;;;;4.70;4.20;;;;;;;4.01;73.96;100669.95;109915;1260;22839;-80
2022/02/11 08:42:11;;;;;;;7.30;4.10;;;;;;;4.00;73.93;100671.57;109948;1258;22168;-80
2022/02/11 08:44:45;;;;;;;7.10;5.10;;;;;;;4.01;74.13;100674.96;110478;1257;23743;-80
2022/02/11 08:47:18;;;;;;;7.30;5.60;;;;;;;4.01;74.10;100668.71;110313;1256;21973;-81
2022/02/11 08:49:52;;;;;;;6.60;5.30;;;;;;;4.02;74.09;100662.20;110813;1253;23024;-81
2022/02/11 08:52:35;;;;;;;9.80;6.80;;;;;;;4.01;73.99;100665.94;110726;1250;21968;-81
2022/02/11 08:55:12;;;;;;;7.60;6.50;;;;;;;4.00;74.02;100673.73;110986;1250;22817;-81
2022/02/11 08:57:47;;;;;;;10.40;6.00;;;;;;;3.99;74.13;100674.25;110990;1250;21980;-81
2022/02/11 09:00:18;;;;;;;7.70;6.10;;;;;;;4.00;74.09;100677.50;110936;1253;23788;-81
2022/02/11 09:02:57;;;;;;;9.40;6.30;;;;;;;3.99;74.14;100672.70;111052;1251;21972;-82
2022/02/11 09:05:30;;;;;;;9.50;6.90;;;;;;;4.01;74.19;100674.34;110837;1253;22905;-80
2022/02/11 09:08:04;;;;;;;8.40;5.80;;;;;;;4.00;74.05;100678.73;110868;1251;21971;-80
2022/02/11 09:10:40;;;;;;;8.50;5.70;;;;;;;3.96;73.91;100682.54;110913;1250;23038;-81
2022/02/11 09:13:27;;;;;;;6.80;5.50;;;;;;;3.93;73.99;100681.19;111052;1250;22041;-82
2022/02/11 09:16:00;;;;;;;10.00;6.30;;;;;;;3.94;74.00;100686.20;111125;1250;23690;-83
2022/02/11 09:18:32;;;;;;;8.50;6.30;;;;;;;3.91;73.86;100696.14;111031;1250;21956;-83
2022/02/11 09:21:17;;;;;;;8.40;6.60;;;;;;;3.91;73.98;100698.45;110341;1256;22874;-82
2022/02/11 09:23:52;;;;;;;7.70;6.50;;;;;;;3.90;74.03;100696.41;110552;1257;22123;-82
2022/02/11 09:26:21;;;;;;;8.70;7.10;;;;;;;3.87;74.05;100695.06;110428;1256;23010;-83
2022/02/11 09:28:53;;;;;;;11.10;8.80;;;;;;;3.83;73.83;100694.85;110603;1256;21973;-83
2022/02/11 09:31:27;;;;;;;12.10;10.90;;;;;;;3.78;73.73;100697.29;110807;1256;22074;-82
2022/02/11 09:34:13;;;;;;;10.70;9.60;;;;;;;3.73;73.80;100694.16;110578;1254;21965;-84
2022/02/11 09:36:52;;;;;;;12.90;11.60;;;;;;;3.70;73.79;100696.13;110681;1254;23075;-82
2022/02/11 09:39:24;;;;;;;10.80;9.30;;;;;;;3.66;73.79;100695.09;110478;1256;23700;-83
2022/02/11 09:42:02;;;;;;;10.50;9.40;;;;;;;3.64;73.88;100698.20;110321;1256;21964;-83
2022/02/11 09:44:41;;;;;;;11.80;9.80;;;;;;;3.63;73.98;100701.23;110607;1257;23986;-82
2022/02/11 09:47:22;;;;;;;16.10;10.30;;;;;;;3.63;74.17;100704.86;110947;1251;21971;-83
2022/02/11 09:50:01;;;;;;;10.80;9.20;;;;;;;3.66;74.27;100706.23;111033;1250;21967;-82
2022/02/11 09:52:44;;;;;;;11.00;8.80;;;;;;;3.63;74.01;100708.34;110954;1250;22006;-82
2022/02/11 09:55:40;;;;;;;11.20;10.00;;;;;;;3.60;73.91;100709.32;111346;1250;22980;-85
2022/02/11 09:58:35;;;;;;;17.80;13.80;;;;;;;3.55;73.98;100713.32;111593;1250;23605;-85
2022/02/11 10:01:43;;;;;;;15.10;13.60;;;;;;;3.53;74.16;100713.27;111172;1256;21968;-86
2022/02/11 10:04:54;;;;;;;14.60;11.70;;;;;;;3.51;74.08;100715.20;111080;1256;21938;-87
2022/02/11 10:07:29;;;;;;;13.90;12.20;;;;;;;3.48;74.20;100712.11;110661;1257;22027;-86
2022/02/11 10:10:05;;;;;;;12.70;10.50;;;;;;;3.50;74.33;100713.00;110477;1257;22182;-84
2022/02/11 10:12:38;;;;;;;12.90;10.50;;;;;;;3.55;74.37;100716.98;110623;1257;22715;-86
2022/02/11 10:15:36;;;;;;;14.80;11.10;;;;;;;3.57;74.37;100718.91;111204;1257;21995;-86
2022/02/11 10:18:34;;;;;;;22.10;14.40;;;;;;;3.55;74.11;100718.73;110798;1252;21995;-82
2022/02/11 10:21:08;;;;;;;21.60;17.20;;;;;;;3.51;74.01;100714.13;110249;1260;21970;-81
2022/02/11 10:23:58;;;;;;;27.80;23.00;;;;;;;3.47;73.96;100713.75;109872;1263;23643;-80
2022/02/11 10:26:30;;;;;;;24.40;20.20;;;;;;;3.42;73.87;100710.65;109473;1265;22684;-79
2022/02/11 10:29:01;;;;;;;20.40;16.90;;;;;;;3.41;73.98;100711.26;109396;1264;21997;-81
2022/02/11 10:31:35;;;;;;;20.80;16.80;;;;;;;3.40;74.07;100709.05;109491;1264;22756;-80
2022/02/11 10:34:11;;;;;;;19.80;17.70;;;;;;;3.39;74.06;100710.65;109151;1267;21991;-79
2022/02/11 10:36:47;;;;;;;24.50;19.50;;;;;;;3.37;73.99;100718.30;108853;1273;22074;-81
2022/02/11 10:39:23;;;;;;;35.50;24.30;;;;;;;3.35;74.04;100719.35;108782;1273;22601;-81
2022/02/11 10:42:03;;;;;;;34.90;26.10;;;;;;;3.34;74.27;100717.52;108791;1273;22002;-80
2022/02/11 10:44:39;;;;;;;21.30;19.00;;;;;;;3.36;74.39;100717.19;108746;1274;23068;-80
2022/02/11 10:47:16;;;;;;;23.70;21.20;;;;;;;3.36;74.46;100719.27;108735;1273;23652;-81
2022/02/11 10:49:55;;;;;;;21.00;18.90;;;;;;;3.33;74.37;100722.80;108562;1277;22104;-81
2022/02/11 10:52:27;;;;;;;25.10;21.70;;;;;;;3.31;74.39;100726.23;108796;1273;22088;-82
2022/02/11 10:54:57;;;;;;;22.30;19.80;;;;;;;3.29;74.33;100728.44;108706;1276;21994;-82
2022/02/11 10:57:31;;;;;;;20.40;17.30;;;;;;;3.27;74.37;100728.61;108392;1282;23680;-83
2022/02/11 11:00:10;;;;;;;21.80;19.60;;;;;;;3.24;74.29;100726.54;108365;1282;22065;-80
2022/02/11 11:02:45;;;;;;;41.60;37.20;;;;;;;3.22;74.38;100730.01;108648;1277;22000;-81
2022/02/11 11:05:14;;;;;;;44.90;40.20;;;;;;;3.23;74.48;100736.70;108582;1276;22026;-80
2022/02/11 11:07:50;;;;;;;35.60;31.90;;;;;;;3.27;74.66;100738.83;108453;1276;23676;-80
2022/02/11 11:10:23;;;;;;;35.90;31.50;;;;;;;3.31;74.62;100736.14;108642;1276;22074;-80
2022/02/11 11:13:00;;;;;;;30.50;25.50;;;;;;;3.32;74.39;100731.91;108660;1276;21957;-82
2022/02/11 11:15:38;;;;;;;27.40;22.60;;;;;;;3.32;74.50;100728.59;109086;1267;23077;-80
2022/02/11 11:18:11;;;;;;;37.30;26.60;;;;;;;3.34;74.54;100736.13;108768;1276;22016;-82
2022/02/11 11:20:45;;;;;;;36.70;27.70;;;;;;;3.33;74.40;100741.21;108982;1270;22007;-81
2022/02/11 11:23:33;;;;;;;37.10;29.40;;;;;;;3.34;74.44;100744.08;109114;1271;22035;-82
2022/02/11 11:26:11;;;;;;;29.90;25.90;;;;;;;3.36;74.43;100744.64;109195;1267;22451;-82
2022/02/11 11:28:54;;;;;;;31.70;26.70;;;;;;;3.36;74.38;100751.70;109469;1266;21988;-82
2022/02/11 11:31:34;;;;;;;25.90;23.20;;;;;;;3.36;74.57;100755.31;109825;1267;23644;-84
2022/02/11 11:34:38;;;;;;;25.50;21.20;;;;;;;3.38;74.57;100758.33;109594;1267;23692;-83
2022/02/11 11:37:23;;;;;;;25.80;21.00;;;;;;;3.35;74.31;100768.95;110686;1260;22859;-86
2022/02/11 11:39:54;;;;;;;27.80;23.00;;;;;;;3.32;74.30;100770.20;110354;1260;22148;-86
2022/02/11 11:42:27;;;;;;;25.00;22.30;;;;;;;3.34;74.29;100778.11;110291;1260;22008;-80
2022/02/11 11:45:00;;;;;;;25.40;22.60;;;;;;;3.32;74.27;100781.85;110366;1260;21979;-82
2022/02/11 11:47:43;;;;;;;26.60;23.80;;;;;;;3.33;74.28;100785.13;110247;1260;22973;-82
2022/02/11 11:50:19;;;;;;;27.00;24.10;;;;;;;3.34;74.32;100787.81;109525;1264;23616;-81
2022/02/11 11:52:55;;;;;;;28.70;25.80;;;;;;;3.35;74.36;100787.55;109434;1263;23774;-77
2022/02/11 11:55:37;;;;;;;33.20;28.20;;;;;;;3.35;74.44;100787.91;109781;1263;22054;-83
2022/02/11 11:58:47;;;;;;;33.20;29.30;;;;;;;3.27;74.04;100791.77;109711;1263;22442;-82
2022/02/11 12:01:20;;;;;;;33.10;29.50;;;;;;;3.20;74.20;100797.72;109645;1264;21985;-81
2022/02/11 12:04:26;;;;;;;28.40;25.40;;;;;;;3.16;74.26;100799.89;109716;1264;22231;-82
2022/02/11 12:07:21;;;;;;;;;;;;;;;;;;;;;
2022/02/11 12:10:10;;;;;;;29.60;26.40;;;;;;;3.07;74.44;100802.77;109849;1263;22157;-80
2022/02/11 12:12:41;;;;;;;33.40;28.40;;;;;;;3.04;74.50;100807.16;109553;1267;23053;-82
2022/02/11 12:15:11;;;;;;;31.20;24.90;;;;;;;3.01;74.44;100810.89;109627;1264;22684;-82
2022/02/11 12:17:53;;;;;;;21.80;18.30;;;;;;;2.97;74.43;100811.16;109676;1264;21976;-82
2022/02/11 12:20:31;;;;;;;19.30;16.70;;;;;;;2.92;74.52;100818.83;109678;1267;21989;-82
2022/02/11 12:29:14;;;;;;;16.80;15.00;;;;;;;2.80;74.79;100817.52;109113;1273;22813;-82
2022/02/11 12:31:51;;;;;;;17.80;14.90;;;;;;;2.77;74.88;100820.38;109240;1270;22039;-82
2022/02/11 12:34:41;;;;;;;;;;;;;;;;;;;;;
2022/02/11 12:37:28;;;;;;;22.30;20.10;;;;;;;2.84;75.26;100821.83;108895;1276;22020;-82
2022/02/11 12:40:29;;;;;;;23.20;19.80;;;;;;;2.88;75.27;100824.15;108940;1273;23660;-82
2022/02/11 12:43:05;;;;;;;25.00;20.10;;;;;;;2.94;75.40;100829.63;109063;1273;22774;-82
2022/02/11 12:45:45;;;;;;;25.10;20.90;;;;;;;2.96;75.26;100834.31;109268;1273;22050;-83
2022/02/11 12:48:16;;;;;;;21.00;18.50;;;;;;;2.96;75.30;100836.15;109389;1267;22072;-83
2022/02/11 12:50:54;;;;;;;24.00;19.80;;;;;;;2.97;75.47;100839.70;109514;1267;21989;-81
2022/02/11 12:53:25;;;;;;;21.50;19.00;;;;;;;3.02;75.64;100842.84;108968;1273;22357;-83
2022/02/11 12:55:55;;;;;;;22.20;19.40;;;;;;;3.03;75.37;100845.17;109067;1273;21998;-83
2022/02/11 12:58:27;;;;;;;22.10;19.70;;;;;;;3.01;75.29;100845.63;109233;1272;24517;-82
2022/02/11 13:01:03;;;;;;;30.30;24.90;;;;;;;3.05;75.67;100847.81;109061;1270;24342;-82
2022/02/11 13:03:34;;;;;;;26.80;20.80;;;;;;;3.13;75.76;100854.36;109692;1270;21985;-82
2022/02/11 13:06:13;;;;;;;23.10;20.60;;;;;;;3.20;75.81;100857.56;109237;1273;22002;-83
2022/02/11 13:08:44;;;;;;;25.80;19.50;;;;;;;3.24;75.71;100860.77;109351;1270;21987;-82
2022/02/11 13:11:24;;;;;;;23.00;20.70;;;;;;;3.25;75.60;100861.00;109425;1264;23566;-81
2022/02/11 13:14:07;;;;;;;16.00;14.00;;;;;;;3.29;75.78;100860.95;109637;1264;21994;-82
2022/02/11 13:16:41;;;;;;;16.20;14.50;;;;;;;3.26;75.45;100871.92;109583;1265;22931;-82
2022/02/11 13:19:23;;;;;;;16.90;15.10;;;;;;;3.21;75.57;100869.34;109238;1270;21998;-82
2022/02/11 13:21:55;;;;;;;16.50;14.40;;;;;;;3.25;75.78;100872.00;109430;1266;22007;-82
2022/02/11 13:24:36;;;;;;;15.70;14.20;;;;;;;3.28;75.79;100875.29;109441;1266;21994;-83
2022/02/11 13:27:11;;;;;;;17.70;15.10;;;;;;;3.33;75.95;100877.94;109342;1267;23582;-81
2022/02/11 13:30:01;;;;;;;17.60;15.80;;;;;;;3.37;76.03;100878.66;109198;1270;21973;-81
2022/02/11 13:32:43;;;;;;;15.90;14.20;;;;;;;3.43;75.92;100882.59;109207;1270;22150;-83
2022/02/11 13:35:17;;;;;;;14.00;12.60;;;;;;;3.48;75.93;100884.17;108910;1276;22062;-81
2022/02/11 13:37:54;;;;;;;;;;;;;;;3.50;75.87;100886.40;109069;1269;22024;-81
2022/02/11 13:40:52;;;;;;;17.40;14.00;;;;;;;3.44;75.94;100888.61;109280;1269;23094;-82
2022/02/11 13:43:22;;;;;;;15.80;13.10;;;;;;;3.47;76.08;100888.70;109299;1269;22013;-80
2022/02/11 13:46:01;;;;;;;15.50;13.50;;;;;;;3.53;76.02;100891.09;108900;1273;23103;-83
2022/02/11 13:48:31;;;;;;;22.40;15.90;;;;;;;3.57;75.85;100897.29;108926;1273;22470;-81
2022/02/11 13:51:17;;;;;;;20.70;17.40;;;;;;;3.61;76.02;100903.73;108854;1275;22086;-82
2022/02/11 13:54:17;;;;;;;20.50;17.80;;;;;;;3.70;76.11;100902.26;108951;1276;23028;-83
2022/02/11 13:56:53;;;;;;;26.60;24.00;;;;;;;3.73;75.77;100906.01;108777;1276;22026;-82
2022/02/11 13:59:33;;;;;;;28.70;25.70;;;;;;;3.73;75.63;100910.36;108757;1270;22050;-81
2022/02/11 14:02:12;;;;;;;25.60;23.20;;;;;;;3.73;75.42;100914.02;109242;1270;22107;-81
2022/02/11 14:05:00;;;;;;;27.50;24.90;;;;;;;3.71;75.34;100915.77;109306;1263;22001;-81
2022/02/11 14:07:35;;;;;;;27.40;24.80;;;;;;;3.67;75.12;100916.22;109554;1264;21997;-82
2022/02/11 14:10:19;;;;;;;28.10;25.20;;;;;;;3.64;75.18;100919.92;110033;1260;22436;-82
2022/02/11 14:13:07;;;;;;;24.90;22.40;;;;;;;3.64;75.33;100930.73;110321;1259;22031;-83
2022/02/11 14:15:44;;;;;;;24.00;20.80;;;;;;;3.62;75.10;100936.77;109510;1267;21997;-80
2022/02/11 14:18:21;;;;;;;21.80;19.50;;;;;;;3.61;75.07;100938.09;109541;1267;22077;-81
2022/02/11 14:21:16;;;;;;;17.20;15.00;;;;;;;3.63;75.35;100935.52;109827;1264;22019;-82
2022/02/11 14:23:54;;;;;;;17.70;15.80;;;;;;;3.62;75.36;100940.25;109395;1267;22000;-81
2022/02/11 14:26:32;;;;;;;13.30;11.90;;;;;;;3.63;75.35;100943.34;109211;1267;22787;-81
2022/02/11 14:29:07;;;;;;;11.50;9.40;;;;;;;3.64;75.43;100941.33;109286;1267;22200;-81
2022/02/11 14:31:41;;;;;;;11.10;8.80;;;;;;;3.62;75.18;100945.67;109367;1267;22020;-82
2022/02/11 14:34:15;;;;;;;15.70;9.40;;;;;;;3.60;75.26;100947.21;109575;1265;22032;-81
2022/02/11 14:36:48;;;;;;;16.70;11.80;;;;;;;3.61;75.28;100947.64;109689;1263;23606;-81
2022/02/11 14:39:30;;;;;;;13.80;10.10;;;;;;;3.61;75.22;100951.32;109704;1263;22032;-80
2022/02/11 14:42:07;;;;;;;18.30;10.00;;;;;;;3.59;75.09;100960.17;109874;1260;21996;-81
2022/02/11 14:44:39;;;;;;;12.80;10.00;;;;;;;3.57;75.04;100965.38;110674;1260;21977;-82
2022/02/11 14:47:09;;;;;;;15.70;9.90;;;;;;;3.56;75.06;100970.51;110299;1260;21997;-82
2022/02/11 14:49:51;;;;;;;17.60;12.20;;;;;;;3.57;75.08;100976.66;109630;1267;22023;-81
2022/02/11 14:52:23;;;;;;;19.30;14.70;;;;;;;3.55;74.95;100983.41;109699;1267;23698;-81
2022/02/11 14:54:54;;;;;;;22.00;15.80;;;;;;;3.57;75.04;100986.47;109238;1267;21954;-82
2022/02/11 14:57:32;;;;;;;20.10;12.40;;;;;;;3.56;74.89;100986.67;109232;1267;23756;-82
2022/02/11 15:00:02;;;;;;;14.30;9.60;;;;;;;3.57;74.87;100990.98;109274;1267;23117;-81
2022/02/11 15:02:34;;;;;;;17.30;11.70;;;;;;;3.59;75.02;100999.86;108868;1270;21985;-81
2022/02/11 15:05:07;;;;;;;15.00;10.30;;;;;;;3.62;74.98;101001.42;109146;1270;23803;-82
2022/02/11 15:07:44;;;;;;;13.30;7.60;;;;;;;3.63;74.93;101006.92;108789;1275;21975;-82
2022/02/11 15:10:17;;;;;;;14.60;9.00;;;;;;;3.65;74.91;101006.42;108847;1276;22058;-81
2022/02/11 15:12:53;;;;;;;11.30;7.60;;;;;;;3.67;74.90;101008.70;108627;1279;22028;-82
2022/02/11 15:15:25;;;;;;;13.30;9.10;;;;;;;3.67;74.73;101013.58;108138;1281;23103;-82
2022/02/11 15:18:00;;;;;;;18.40;10.20;;;;;;;3.67;74.66;101018.13;108333;1282;22010;-81
2022/02/11 15:20:34;;;;;;;24.20;13.00;;;;;;;3.68;74.50;101018.59;108340;1281;22000;-81
2022/02/11 15:23:07;;;;;;;19.30;12.60;;;;;;;3.67;74.30;101018.14;108326;1282;22024;-81
2022/02/11 15:25:37;;;;;;;17.70;11.40;;;;;;;3.64;74.25;101022.02;108381;1276;22003;-81
2022/02/11 15:28:15;;;;;;;17.80;11.90;;;;;;;3.59;74.14;101023.20;109159;1273;22088;-81
2022/02/11 15:30:48;;;;;;;18.40;11.30;;;;;;;3.54;74.03;101030.16;109052;1264;21989;-82
2022/02/11 15:33:18;;;;;;;20.60;11.70;;;;;;;3.50;73.92;101036.34;109546;1260;22094;-82
2022/02/11 15:35:51;;;;;;;19.30;12.40;;;;;;;3.48;73.99;101043.27;110183;1260;21973;-81
2022/02/11 15:38:26;;;;;;;12.90;10.30;;;;;;;3.47;74.10;101042.48;110169;1261;21985;-81
2022/02/11 15:40:58;;;;;;;18.40;11.70;;;;;;;3.46;74.13;101040.98;109881;1262;22115;-81
2022/02/11 15:43:34;;;;;;;15.50;9.60;;;;;;;3.45;73.95;101042.96;109662;1263;21978;-81
2022/02/11 15:46:06;;;;;;;15.90;10.40;;;;;;;3.40;73.82;101042.25;109741;1264;21993;-81
2022/02/11 15:48:39;;;;;;;15.00;10.10;;;;;;;3.36;73.82;101046.77;110057;1261;23130;-81
2022/02/11 15:51:15;;;;;;;16.90;9.40;;;;;;;3.30;73.84;101051.66;109888;1262;21982;-81
2022/02/11 15:53:47;;;;;;;16.00;11.40;;;;;;;3.27;73.88;101055.33;109839;1262;23071;-81
2022/02/11 15:56:17;;;;;;;20.90;14.50;;;;;;;3.24;73.85;101055.38;109896;1262;21982;-81
2022/02/11 15:58:53;;;;;;;19.90;15.30;;;;;;;3.22;73.88;101060.56;109646;1260;23614;-81
2022/02/11 16:01:33;;;;;;;23.40;14.80;;;;;;;3.16;73.72;101068.96;109569;1263;23916;-81
2022/02/11 16:04:08;;;;;;;23.70;16.00;;;;;;;3.10;73.72;101071.14;109106;1270;21973;-81
2022/02/11 16:06:40;;;;;;;22.70;17.30;;;;;;;3.03;73.70;101073.96;109076;1267;21963;-81
2022/02/11 16:09:12;;;;;;;19.10;14.60;;;;;;;3.00;73.96;101083.98;109117;1267;22002;-80
2022/02/11 16:11:44;;;;;;;19.80;15.00;;;;;;;2.98;74.05;101086.84;109135;1267;23057;-82
2022/02/11 16:14:26;;;;;;;;;;;;;;;;;;;;;
2022/02/11 16:17:00;;;;;;;23.60;19.20;;;;;;;2.96;74.07;101097.26;109242;1267;22153;-80
2022/02/11 16:19:34;;;;;;;18.10;15.40;;;;;;;2.94;74.09;101101.77;109252;1264;23698;-81
2022/02/11 16:22:05;;;;;;;;;;;;;;;2.92;74.15;101102.03;109770;1260;21976;-80
2022/02/11 16:24:47;;;;;;;18.10;13.00;;;;;;;2.86;74.41;101100.73;109330;1265;23699;-81
2022/02/11 16:27:20;;;;;;;21.40;14.90;;;;;;;2.85;74.57;101102.67;109246;1264;23206;-82